createdAt,value
2018-02-21T00:01:26.879Z,98429.23
2018-02-21T00:03:56.695Z,98426.83
2018-02-21T00:06:26.536Z,98425.38
2018-02-21T00:08:56.361Z,98430.73
2018-02-21T00:11:26.192Z,98431.09
2018-02-21T00:13:56.076Z,98434.12
2018-02-21T00:16:25.965Z,98434.67
2018-02-21T00:18:56.113Z,98437.13
2018-02-21T00:21:26.117Z,98438.95
2018-02-21T00:23:55.935Z,98443.38
2018-02-21T00:26:25.512Z,98435.58
2018-02-21T00:28:55.348Z,98443.52
2018-02-21T00:31:25.138Z,98437.87
2018-02-21T00:33:54.963Z,98441.03
2018-02-21T00:36:24.813Z,98442.44
2018-02-21T00:38:54.616Z,98439.61
2018-02-21T00:41:24.444Z,98440.57
2018-02-21T00:43:54.249Z,98440.77
2018-02-21T00:46:24.060Z,98436.59
2018-02-21T00:48:56.145Z,98440.39
2018-02-21T00:51:26.503Z,98432.95
2018-02-21T00:53:56.528Z,98434.52
2018-02-21T00:56:26.349Z,98439.20
2018-02-21T00:58:56.172Z,98434.67
2018-02-21T01:01:25.980Z,98439.29
2018-02-21T01:03:55.815Z,98435.56
2018-02-21T01:06:25.617Z,98440.83
2018-02-21T01:08:55.444Z,98442.07
2018-02-21T01:11:25.248Z,98441.28
2018-02-21T01:13:55.128Z,98443.22
2018-02-21T01:16:25.001Z,98444.69
2018-02-21T01:18:54.845Z,98442.70
2018-02-21T01:21:24.666Z,98446.14
2018-02-21T01:23:54.493Z,98442.67
2018-02-21T01:26:24.303Z,98447.20
2018-02-21T01:28:54.100Z,98444.58
2018-02-21T01:31:23.912Z,98448.38
2018-02-21T01:33:54.031Z,98442.52
2018-02-21T01:36:23.849Z,98447.70
2018-02-21T01:38:53.423Z,98448.50
2018-02-21T01:41:23.236Z,98450.69
2018-02-21T01:43:53.066Z,98446.66
2018-02-21T01:46:22.905Z,98443.69
2018-02-21T01:48:52.703Z,98449.66
2018-02-21T01:51:22.541Z,98443.05
2018-02-21T01:53:52.372Z,98448.58
2018-02-21T01:56:22.175Z,98443.55
2018-02-21T01:58:52.037Z,98446.20
2018-02-21T02:01:21.848Z,98445.84
2018-02-21T02:03:51.666Z,98449.00
2018-02-21T02:06:21.503Z,98447.47
2018-02-21T02:08:51.366Z,98446.41
2018-02-21T02:11:21.206Z,98444.44
2018-02-21T02:16:26.068Z,98447.05
2018-02-21T02:18:55.897Z,98446.14
2018-02-21T02:21:25.883Z,98446.76
2018-02-21T02:23:55.714Z,98450.85
2018-02-21T02:26:25.505Z,98451.06
2018-02-21T02:28:55.319Z,98450.64
2018-02-21T02:31:25.187Z,98447.81
2018-02-21T02:33:54.984Z,98450.97
2018-02-21T02:36:24.777Z,98464.48
2018-02-21T02:39:05.728Z,98454.92
2018-02-21T02:41:35.244Z,98455.14
2018-02-21T02:44:05.123Z,98459.52
2018-02-21T02:46:34.693Z,98452.84
2018-02-21T02:49:04.491Z,98449.73
2018-02-21T02:51:42.490Z,98456.91
2018-02-21T02:54:12.293Z,98457.95
2018-02-21T02:56:42.098Z,98469.31
2018-02-21T02:59:11.911Z,98463.95
2018-02-21T03:01:41.711Z,98464.16
2018-02-21T03:04:11.531Z,98469.72
2018-02-21T03:06:41.345Z,98460.20
2018-02-21T03:09:11.205Z,98463.66
2018-02-21T03:11:40.740Z,98463.01
2018-02-21T03:14:10.562Z,98462.77
2018-02-21T03:16:40.381Z,98464.89
2018-02-21T03:19:10.176Z,98466.45
2018-02-21T03:21:39.995Z,98470.78
2018-02-21T03:24:09.799Z,98473.17
2018-02-21T03:26:39.640Z,98467.64
2018-02-21T03:29:09.454Z,98472.20
2018-02-21T03:31:39.495Z,98479.77
2018-02-21T03:34:09.332Z,98474.84
2018-02-21T03:36:39.141Z,98483.80
2018-02-21T03:39:08.972Z,98482.59
2018-02-21T03:41:46.046Z,98479.30
2018-02-21T03:46:52.361Z,98489.81
2018-02-21T03:49:22.176Z,98490.16
2018-02-21T03:51:51.976Z,98488.69
2018-02-21T03:54:22.063Z,98494.47
2018-02-21T03:56:51.850Z,98489.69
2018-02-21T03:59:21.663Z,98495.55
2018-02-21T04:01:51.480Z,98494.48
2018-02-21T04:04:21.276Z,98502.62
2018-02-21T04:06:51.084Z,98499.11
2018-02-21T04:09:20.617Z,98497.55
2018-02-21T04:11:50.436Z,98493.48
2018-02-21T04:14:20.045Z,98493.25
2018-02-21T04:16:49.895Z,98482.97
2018-02-21T04:19:19.706Z,98489.87
2018-02-21T04:21:49.517Z,98470.41
2018-02-21T04:24:19.329Z,98486.22
2018-02-21T04:26:49.153Z,98487.48
2018-02-21T04:29:18.952Z,98492.73
2018-02-21T04:31:48.744Z,98494.67
2018-02-21T04:34:18.581Z,98486.92
2018-02-21T04:36:49.129Z,98493.55
2018-02-21T04:39:18.959Z,98488.81
2018-02-21T04:41:48.579Z,98496.67
2018-02-21T04:44:18.390Z,98499.84
2018-02-21T04:46:48.223Z,98506.73
2018-02-21T04:49:18.013Z,98506.53
2018-02-21T04:51:47.889Z,98508.64
2018-02-21T04:54:23.119Z,98516.61
2018-02-21T04:56:58.128Z,98521.17
2018-02-21T04:59:33.294Z,98515.43
2018-02-21T05:02:02.901Z,98518.61
2018-02-21T05:04:32.773Z,98516.08
2018-02-21T05:07:02.441Z,98519.07
2018-02-21T05:09:32.242Z,98520.70
2018-02-21T05:12:02.058Z,98525.80
2018-02-21T05:14:31.873Z,98528.16
2018-02-21T05:17:01.963Z,98527.33
2018-02-21T05:19:31.791Z,98526.59
2018-02-21T05:22:01.597Z,98529.73
2018-02-21T05:24:31.427Z,98532.58
2018-02-21T05:27:01.301Z,98537.84
2018-02-21T05:29:32.381Z,98531.25
2018-02-21T05:32:02.249Z,98534.91
2018-02-21T05:34:36.533Z,98537.44
2018-02-21T05:37:06.335Z,98541.66
2018-02-21T05:39:39.997Z,98545.96
2018-02-21T05:42:09.798Z,98545.83
2018-02-21T05:44:39.607Z,98540.94
2018-02-21T05:47:09.450Z,98553.82
2018-02-21T05:49:39.282Z,98552.90
2018-02-21T05:52:09.134Z,98555.51
2018-02-21T05:54:38.913Z,98554.63
2018-02-21T05:57:08.728Z,98556.55
2018-02-21T05:59:38.537Z,98559.27
2018-02-21T06:02:08.418Z,98560.81
2018-02-21T06:04:38.412Z,98562.05
2018-02-21T06:07:08.308Z,98561.85
2018-02-21T06:09:38.211Z,98565.20
2018-02-21T06:12:08.049Z,98566.14
2018-02-21T06:14:37.961Z,98571.43
2018-02-21T06:17:07.928Z,98575.45
2018-02-21T06:19:37.897Z,98575.33
2018-02-21T06:22:07.845Z,98575.69
2018-02-21T06:24:37.897Z,98581.37
2018-02-21T06:27:07.920Z,98582.06
2018-02-21T06:29:37.755Z,98583.75
2018-02-21T06:32:07.775Z,98588.36
2018-02-21T06:34:37.799Z,98595.98
2018-02-21T06:37:07.686Z,98601.95
2018-02-21T06:39:37.647Z,98599.20
2018-02-21T06:42:07.578Z,98595.27
2018-02-21T06:44:37.723Z,98597.33
2018-02-21T06:47:07.878Z,98600.52
2018-02-21T06:49:37.860Z,98599.54
2018-02-21T06:52:07.872Z,98602.56
2018-02-21T06:54:37.874Z,98608.11
2018-02-21T06:57:07.921Z,98608.48
2018-02-21T06:59:37.827Z,98606.37
2018-02-21T07:02:07.153Z,98619.49
2018-02-21T07:04:36.841Z,98620.92
2018-02-21T07:07:08.108Z,98616.45
2018-02-21T07:09:40.318Z,98618.91
2018-02-21T07:12:10.179Z,98627.95
2018-02-21T07:14:40.198Z,98619.63
2018-02-21T07:17:10.222Z,98619.53
2018-02-21T07:19:40.566Z,98627.25
2018-02-21T07:22:10.767Z,98623.90
2018-02-21T07:24:50.417Z,98631.72
2018-02-21T07:27:22.353Z,98635.23
2018-02-21T07:29:57.775Z,98642.65
2018-02-21T07:32:27.978Z,98640.94
2018-02-21T07:34:57.873Z,98645.69
2018-02-21T07:37:27.987Z,98647.88
2018-02-21T07:39:57.841Z,98646.89
2018-02-21T07:42:27.792Z,98644.44
2018-02-21T07:44:57.670Z,98641.15
2018-02-21T07:47:27.591Z,98648.33
2018-02-21T07:49:57.549Z,98640.42
2018-02-21T07:52:27.725Z,98645.93
2018-02-21T07:54:58.721Z,98646.05
2018-02-21T07:57:28.725Z,98650.95
2018-02-21T07:59:58.913Z,98655.38
2018-02-21T08:02:28.757Z,98660.16
2018-02-21T08:04:58.922Z,98653.45
2018-02-21T08:07:29.064Z,98650.70
2018-02-21T08:09:58.801Z,98655.76
2018-02-21T08:12:28.991Z,98647.63
2018-02-21T08:14:58.829Z,98646.52
2018-02-21T08:17:34.379Z,98650.10
2018-02-21T08:20:07.500Z,98643.75
2018-02-21T08:22:37.404Z,98642.75
2018-02-21T08:25:07.317Z,98638.84
2018-02-21T08:27:56.120Z,98644.33
2018-02-21T08:30:27.857Z,98657.14
2018-02-21T08:32:58.030Z,98652.87
2018-02-21T08:35:28.979Z,98660.30
2018-02-21T08:38:00.789Z,98659.87
2018-02-21T08:40:31.853Z,98664.59
2018-02-21T08:43:02.556Z,98653.98
2018-02-21T08:45:33.170Z,98658.88
2018-02-21T08:48:03.232Z,98659.28
2018-02-21T08:50:33.085Z,98660.55
2018-02-21T08:53:34.741Z,98662.45
2018-02-21T08:56:06.283Z,98657.16
2018-02-21T08:58:36.301Z,98666.06
2018-02-21T09:01:06.438Z,98663.50
2018-02-21T09:03:36.426Z,98657.42
2018-02-21T09:06:07.344Z,98660.23
2018-02-21T09:08:37.235Z,98661.12
2018-02-21T09:11:07.383Z,98663.31
2018-02-21T09:13:37.306Z,98660.59
2018-02-21T09:16:07.262Z,98662.06
2018-02-21T09:18:37.157Z,98662.16
2018-02-21T09:21:07.139Z,98659.89
2018-02-21T09:23:37.040Z,98658.55
2018-02-21T09:26:11.136Z,98663.41
2018-02-21T09:28:42.190Z,98660.33
2018-02-21T09:31:12.637Z,98657.52
2018-02-21T09:33:43.000Z,98650.52
2018-02-21T09:36:13.357Z,98648.72
2018-02-21T09:38:43.206Z,98652.15
2018-02-21T09:41:13.134Z,98642.54
2018-02-21T09:43:44.548Z,98647.81
2018-02-21T09:46:17.939Z,98638.62
2018-02-21T09:48:47.901Z,98645.81
2018-02-21T09:51:17.799Z,98643.47
2018-02-21T09:53:47.777Z,98643.24
2018-02-21T09:56:23.543Z,98643.94
2018-02-21T09:59:16.073Z,98647.67
2018-02-21T10:01:46.004Z,98643.61
2018-02-21T10:04:15.509Z,98632.72
2018-02-21T10:06:45.470Z,98635.73
2018-02-21T10:09:15.120Z,98633.19
2018-02-21T10:11:44.940Z,98639.59
2018-02-21T10:14:14.802Z,98639.67
2018-02-21T10:16:44.649Z,98636.73
2018-02-21T10:19:14.375Z,98636.12
2018-02-21T10:21:44.161Z,98633.45
2018-02-21T10:24:14.370Z,98635.19
2018-02-21T10:26:44.198Z,98643.25
2018-02-21T10:29:13.992Z,98628.35
2018-02-21T10:31:43.821Z,98635.09
2018-02-21T10:34:13.634Z,98634.70
2018-02-21T10:36:43.485Z,98638.13
2018-02-21T10:39:13.350Z,98634.36
2018-02-21T10:41:43.185Z,98638.08
2018-02-21T10:44:13.309Z,98626.30
2018-02-21T10:46:43.438Z,98625.70
2018-02-21T10:49:13.419Z,98626.89
2018-02-21T10:51:43.361Z,98635.66
2018-02-21T10:54:13.166Z,98630.67
2018-02-21T10:56:43.010Z,98636.05
2018-02-21T10:59:12.822Z,98631.78
2018-02-21T11:01:43.074Z,98621.88
2018-02-21T11:04:12.885Z,98621.47
2018-02-21T11:06:42.696Z,98619.14
2018-02-21T11:09:12.728Z,98616.59
2018-02-21T11:11:42.588Z,98616.02
2018-02-21T11:14:12.411Z,98613.46
2018-02-21T11:16:42.801Z,98608.04
2018-02-21T11:19:12.931Z,98609.48
2018-02-21T11:21:42.885Z,98602.90
2018-02-21T11:24:12.705Z,98608.18
2018-02-21T11:26:42.533Z,98611.59
2018-02-21T11:29:12.403Z,98608.48
2018-02-21T11:31:42.224Z,98610.05
2018-02-21T11:34:12.168Z,98615.80
2018-02-21T11:36:41.845Z,98608.13
2018-02-21T11:39:11.690Z,98609.13
2018-02-21T11:41:41.498Z,98602.88
2018-02-21T11:44:11.343Z,98595.50
2018-02-21T11:46:41.167Z,98602.62
2018-02-21T11:49:11.072Z,98601.19
2018-02-21T11:51:40.892Z,98602.17
2018-02-21T11:54:10.792Z,98596.25
2018-02-21T11:56:40.614Z,98589.11
2018-02-21T11:59:10.401Z,98586.72
2018-02-21T12:01:40.213Z,98586.52
2018-02-21T12:04:10.045Z,98587.05
2018-02-21T12:06:40.400Z,98589.20
2018-02-21T12:09:10.217Z,98580.30
2018-02-21T12:11:40.136Z,98582.22
2018-02-21T12:14:10.072Z,98577.72
2018-02-21T12:16:39.888Z,98578.72
2018-02-21T12:19:10.038Z,98576.82
2018-02-21T12:21:39.621Z,98570.37
2018-02-21T12:24:09.220Z,98568.02
2018-02-21T12:26:38.793Z,98566.03
2018-02-21T12:29:08.412Z,98563.64
2018-02-21T12:31:37.840Z,98562.45
2018-02-21T12:34:07.408Z,98565.38
2018-02-21T12:36:36.968Z,98566.80
2018-02-21T12:39:11.641Z,98555.50
2018-02-21T12:41:45.111Z,98558.45
2018-02-21T12:44:14.849Z,98557.05
2018-02-21T12:46:44.364Z,98553.82
2018-02-21T12:49:13.950Z,98551.30
2018-02-21T12:51:43.790Z,98552.11
2018-02-21T12:54:13.634Z,98551.15
2018-02-21T12:56:43.541Z,98551.25
2018-02-21T12:59:13.374Z,98553.16
2018-02-21T13:01:43.190Z,98555.53
2018-02-21T13:04:13.038Z,98554.25
2018-02-21T13:06:43.124Z,98549.65
2018-02-21T13:09:13.011Z,98549.65
2018-02-21T13:11:42.817Z,98552.78
2018-02-21T13:14:12.743Z,98549.79
2018-02-21T13:16:42.721Z,98553.95
2018-02-21T13:19:12.588Z,98552.94
2018-02-21T13:21:42.426Z,98544.99
2018-02-21T13:24:12.286Z,98543.70
2018-02-21T13:26:42.181Z,98547.11
2018-02-21T13:29:12.124Z,98541.14
2018-02-21T13:31:42.158Z,98544.91
2018-02-21T13:34:12.148Z,98549.52
2018-02-21T13:36:42.013Z,98547.29
2018-02-21T13:39:12.154Z,98544.27
2018-02-21T13:41:42.026Z,98540.53
2018-02-21T13:44:11.963Z,98552.83
2018-02-21T13:46:41.795Z,98548.92
2018-02-21T13:49:11.680Z,98553.22
2018-02-21T13:51:41.519Z,98554.44
2018-02-21T13:54:11.440Z,98555.38
2018-02-21T13:56:41.812Z,98550.05
2018-02-21T13:59:11.747Z,98559.33
2018-02-21T14:01:41.586Z,98550.86
2018-02-21T14:04:11.942Z,98556.83
2018-02-21T14:06:42.023Z,98561.00
2018-02-21T14:09:11.958Z,98565.70
2018-02-21T14:11:42.114Z,98562.14
2018-02-21T14:14:13.049Z,98569.53
2018-02-21T14:16:43.884Z,98567.33
2018-02-21T14:19:13.784Z,98571.04
2018-02-21T14:21:43.890Z,98569.58
2018-02-21T14:24:13.750Z,98564.15
2018-02-21T14:26:43.679Z,98564.80
2018-02-21T14:29:13.606Z,98560.73
2018-02-21T14:31:43.518Z,98566.48
2018-02-21T14:34:13.442Z,98566.16
2018-02-21T14:36:43.967Z,98572.00
2018-02-21T14:39:13.925Z,98578.25
2018-02-21T14:41:44.258Z,98574.80
2018-02-21T14:44:15.948Z,98578.05
2018-02-21T14:46:47.059Z,98579.84
2018-02-21T14:49:17.833Z,98581.67
2018-02-21T14:51:47.918Z,98580.24
2018-02-21T14:54:17.923Z,98579.16
2018-02-21T14:56:47.856Z,98579.38
2018-02-21T14:59:17.917Z,98582.87
2018-02-21T15:01:50.489Z,98575.45
2018-02-21T15:04:25.353Z,98582.67
2018-02-21T15:06:55.263Z,98580.37
2018-02-21T15:09:25.214Z,98584.34
2018-02-21T15:11:55.428Z,98582.52
2018-02-21T15:14:25.503Z,98574.05
2018-02-21T15:16:56.909Z,98576.81
2018-02-21T15:19:29.979Z,98572.30
2018-02-21T15:22:01.320Z,98579.17
2018-02-21T15:24:34.583Z,98575.57
2018-02-21T15:27:05.099Z,98578.55
2018-02-21T15:29:35.092Z,98577.94
2018-02-21T15:32:05.283Z,98573.52
2018-02-21T15:34:35.141Z,98573.52
2018-02-21T15:37:05.197Z,98574.06
2018-02-21T15:39:35.154Z,98583.69
2018-02-21T15:42:05.710Z,98582.86
2018-02-21T15:44:44.272Z,98587.47
2018-02-21T15:47:18.223Z,98588.99
2018-02-21T15:49:51.209Z,98594.82
2018-02-21T15:52:21.719Z,98593.86
2018-02-21T15:54:52.274Z,98592.12
2018-02-21T15:57:22.792Z,98596.61
2018-02-21T15:59:52.762Z,98594.02
2018-02-21T16:02:22.922Z,98598.17
2018-02-21T16:04:53.296Z,98588.89
2018-02-21T16:07:24.131Z,98583.66
2018-02-21T16:09:56.363Z,98586.72
2018-02-21T16:12:26.327Z,98592.28
2018-02-21T16:14:58.149Z,98589.95
2018-02-21T16:17:32.322Z,98597.25
2018-02-21T16:20:02.516Z,98592.77
2018-02-21T16:22:32.954Z,98600.09
2018-02-21T16:25:03.836Z,98595.70
2018-02-21T16:27:33.763Z,98604.17
2018-02-21T16:30:05.717Z,98607.31
2018-02-21T16:32:35.688Z,98608.20
2018-02-21T16:35:07.671Z,98608.36
2018-02-21T16:37:38.921Z,98606.33
2018-02-21T16:40:09.013Z,98609.21
2018-02-21T16:42:38.840Z,98611.14
2018-02-21T16:45:08.629Z,98612.25
2018-02-21T16:47:44.261Z,98610.06
2018-02-21T16:50:15.950Z,98615.71
2018-02-21T16:52:51.374Z,98620.78
2018-02-21T16:55:23.117Z,98621.44
2018-02-21T16:57:53.030Z,98619.42
2018-02-21T17:00:22.994Z,98623.98
2018-02-21T17:05:30.897Z,98628.27
2018-02-21T17:08:04.958Z,98628.80
2018-02-21T17:10:34.578Z,98627.05
2018-02-21T17:13:04.626Z,98628.36
2018-02-21T17:15:34.673Z,98630.50
2018-02-21T17:18:04.545Z,98638.20
2018-02-21T17:20:34.435Z,98638.13
2018-02-21T17:23:08.826Z,98647.69
2018-02-21T17:25:38.712Z,98642.92
2018-02-21T17:28:09.273Z,98650.38
2018-02-21T17:30:39.219Z,98645.70
2018-02-21T17:33:10.433Z,98643.63
2018-02-21T17:35:40.300Z,98653.69
2018-02-21T17:38:10.132Z,98651.62
2018-02-21T17:40:45.451Z,98649.58
2018-02-21T17:43:16.544Z,98645.66
2018-02-21T17:45:46.550Z,98655.16
2018-02-21T17:48:16.830Z,98654.01
2018-02-21T17:50:48.158Z,98652.75
2018-02-21T17:53:18.224Z,98656.41
2018-02-21T17:55:48.089Z,98660.84
2018-02-21T18:01:50.526Z,98654.20
2018-02-21T18:04:20.404Z,98658.30
2018-02-21T18:06:50.292Z,98662.94
2018-02-21T18:09:20.153Z,98659.25
2018-02-21T18:11:50.300Z,98670.13
2018-02-21T18:14:23.081Z,98669.63
2018-02-21T18:16:58.859Z,98669.66
2018-02-21T18:19:28.737Z,98664.11
2018-02-21T18:21:58.677Z,98662.55
2018-02-21T18:24:28.738Z,98669.81
2018-02-21T18:27:00.189Z,98671.93
2018-02-21T18:29:30.266Z,98668.66
2018-02-21T18:32:00.293Z,98674.20
2018-02-21T18:34:30.227Z,98676.20
2018-02-21T18:37:10.054Z,98680.86
2018-02-21T18:39:42.163Z,98679.94
2018-02-21T18:42:11.991Z,98691.77
2018-02-21T18:44:44.368Z,98688.02
2018-02-21T18:47:14.780Z,98689.34
2018-02-21T18:49:44.924Z,98689.61
2018-02-21T18:52:15.172Z,98687.59
2018-02-21T18:54:46.082Z,98689.02
2018-02-21T18:57:18.450Z,98687.44
2018-02-21T18:59:48.435Z,98691.14
2018-02-21T19:02:18.475Z,98687.03
2018-02-21T19:04:48.444Z,98697.95
2018-02-21T19:07:18.304Z,98692.44
2018-02-21T19:09:47.926Z,98700.48
2018-02-21T19:12:17.863Z,98694.94
2018-02-21T19:14:48.766Z,98701.86
2018-02-21T19:17:18.774Z,98693.83
2018-02-21T19:19:48.798Z,98694.01
2018-02-21T19:22:18.660Z,98701.67
2018-02-21T19:24:48.640Z,98696.95
2018-02-21T19:27:18.476Z,98705.19
2018-02-21T19:29:48.377Z,98702.08
2018-02-21T19:32:18.845Z,98700.63
2018-02-21T19:34:48.869Z,98699.95
2018-02-21T19:37:18.827Z,98698.06
2018-02-21T19:39:48.845Z,98697.40
2018-02-21T19:42:19.178Z,98697.94
2018-02-21T19:44:49.787Z,98698.39
2018-02-21T19:47:19.739Z,98695.46
2018-02-21T19:49:50.006Z,98697.66
2018-02-21T19:52:20.022Z,98690.41
2018-02-21T19:54:50.015Z,98696.98
2018-02-21T19:57:19.827Z,98692.27
2018-02-21T19:59:49.687Z,98694.75
2018-02-21T20:02:19.958Z,98695.09
2018-02-21T20:04:49.786Z,98699.22
2018-02-21T20:07:19.760Z,98687.88
2018-02-21T20:09:49.840Z,98692.80
2018-02-21T20:12:19.724Z,98688.95
2018-02-21T20:14:49.594Z,98695.12
2018-02-21T20:17:19.528Z,98696.57
2018-02-21T20:19:49.554Z,98688.38
2018-02-21T20:22:19.643Z,98691.22
2018-02-21T20:24:49.660Z,98694.33
2018-02-21T20:27:19.972Z,98694.05
2018-02-21T20:29:50.178Z,98697.16
2018-02-21T20:32:20.273Z,98701.99
2018-02-21T20:34:50.444Z,98695.91
2018-02-21T20:37:20.778Z,98696.28
2018-02-21T20:39:50.999Z,98698.48
2018-02-21T20:42:21.110Z,98699.55
2018-02-21T20:44:51.344Z,98703.33
2018-02-21T20:47:21.456Z,98693.67
2018-02-21T20:49:51.387Z,98695.28
2018-02-21T20:52:21.296Z,98695.58
2018-02-21T20:54:54.196Z,98698.94
2018-02-21T20:57:27.662Z,98697.98
2018-02-21T20:59:57.503Z,98695.91
2018-02-21T21:02:27.337Z,98700.88
2018-02-21T21:04:57.183Z,98692.55
2018-02-21T21:07:27.006Z,98692.00
2018-02-21T21:09:57.496Z,98700.17
2018-02-21T21:12:27.957Z,98694.23
2018-02-21T21:14:57.851Z,98698.80
2018-02-21T21:17:28.638Z,98698.39
2018-02-21T21:19:58.520Z,98697.72
2018-02-21T21:22:28.471Z,98695.41
2018-02-21T21:24:58.276Z,98690.30
2018-02-21T21:27:28.066Z,98688.78
2018-02-21T21:29:57.892Z,98684.55
2018-02-21T21:32:27.723Z,98687.56
2018-02-21T21:34:57.553Z,98680.64
2018-02-21T21:37:27.423Z,98675.17
2018-02-21T21:39:57.687Z,98682.82
2018-02-21T21:42:27.840Z,98676.79
2018-02-21T21:44:58.032Z,98679.48
2018-02-21T21:47:28.134Z,98675.78
2018-02-21T21:49:58.111Z,98672.63
2018-02-21T21:52:28.520Z,98672.59
2018-02-21T21:54:59.176Z,98673.98
2018-02-21T21:57:29.210Z,98667.13
2018-02-21T21:59:59.148Z,98672.23
2018-02-21T22:02:28.955Z,98666.66
2018-02-21T22:04:59.043Z,98666.13
2018-02-21T22:07:29.192Z,98670.11
2018-02-21T22:10:00.768Z,98665.80
2018-02-21T22:12:30.616Z,98676.67
2018-02-21T22:15:01.797Z,98674.47
2018-02-21T22:17:32.453Z,98674.63
2018-02-21T22:20:02.680Z,98674.84
2018-02-21T22:22:32.241Z,98683.59
2018-02-21T22:25:02.293Z,98684.65
2018-02-21T22:27:32.216Z,98682.75
2018-02-21T22:30:02.026Z,98675.00
2018-02-21T22:32:31.821Z,98678.23
2018-02-21T22:35:01.918Z,98686.88
2018-02-21T22:37:31.709Z,98683.32
2018-02-21T22:40:01.542Z,98683.36
2018-02-21T22:42:32.279Z,98679.63
2018-02-21T22:45:02.372Z,98681.90
2018-02-21T22:47:32.170Z,98681.89
2018-02-21T22:50:01.996Z,98687.00
2018-02-21T22:52:32.526Z,98681.63
2018-02-21T22:55:02.326Z,98682.67
2018-02-21T22:57:32.144Z,98685.64
2018-02-21T23:00:02.002Z,98689.23
2018-02-21T23:02:31.557Z,98683.21
2018-02-21T23:05:01.373Z,98682.50
2018-02-21T23:07:31.225Z,98687.84
2018-02-21T23:10:01.086Z,98680.75
2018-02-21T23:12:30.941Z,98684.88
2018-02-21T23:15:00.844Z,98688.70
2018-02-21T23:17:30.724Z,98688.82
2018-02-21T23:20:00.288Z,98691.83
2018-02-21T23:22:30.123Z,98689.42
2018-02-21T23:24:59.946Z,98692.08
2018-02-21T23:27:29.758Z,98689.90
2018-02-21T23:29:59.573Z,98694.77
2018-02-21T23:32:29.417Z,98683.49
2018-02-21T23:34:59.286Z,98676.25
2018-02-21T23:37:29.139Z,98679.91
2018-02-21T23:39:58.981Z,98676.71
2018-02-21T23:42:28.784Z,98674.02
2018-02-21T23:44:58.617Z,98677.87
2018-02-21T23:47:28.421Z,98675.94
2018-02-21T23:49:58.250Z,98673.17
2018-02-21T23:52:28.143Z,98668.63
2018-02-21T23:54:59.415Z,98673.84
2018-02-21T23:57:29.238Z,98678.00
2018-02-21T23:59:59.095Z,98673.28
